createdAt,value
2022-08-16T00:01:34.220Z,98114.56
2022-08-16T00:04:07.830Z,98114.91
2022-08-16T00:06:39.404Z,98120.47
2022-08-16T00:09:07.876Z,98117.91
2022-08-16T00:11:40.925Z,98121.06
2022-08-16T00:14:17.456Z,98123.34
2022-08-16T00:17:00.824Z,98111.22
2022-08-16T00:19:41.633Z,98114.34
2022-08-16T00:22:12.720Z,98121.88
2022-08-16T00:24:41.313Z,98121.06
2022-08-16T00:27:12.358Z,98120.25
2022-08-16T00:29:39.644Z,98128.47
2022-08-16T00:32:10.966Z,98118.97
2022-08-16T00:34:44.374Z,98119.31
2022-08-16T00:37:25.102Z,98119.66
2022-08-16T00:40:34.769Z,98122.44
2022-08-16T00:43:19.137Z,98134.72
2022-08-16T00:46:33.239Z,98137.03
2022-08-16T00:49:03.232Z,98138.50
2022-08-16T00:51:31.212Z,98136.44
2022-08-16T00:53:59.894Z,98138.25
2022-08-16T00:56:57.194Z,98145.78
2022-08-16T00:59:23.840Z,98140.44
2022-08-16T01:01:53.040Z,98148.13
2022-08-16T01:04:29.852Z,98142.28
2022-08-16T01:07:01.876Z,98147.50
2022-08-16T01:09:33.427Z,98146.88
2022-08-16T01:12:08.701Z,98144.78
2022-08-16T01:14:45.625Z,98153.81
2022-08-16T01:17:16.102Z,98151.38
2022-08-16T01:19:50.797Z,98146.97
2022-08-16T01:22:48.426Z,98150.41
2022-08-16T01:25:36.374Z,98155.84
2022-08-16T01:28:10.508Z,98154.91
2022-08-16T01:30:56.488Z,98158.00
2022-08-16T01:33:24.273Z,98155.09
2022-08-16T01:36:11.766Z,98161.47
2022-08-16T01:38:44.947Z,98155.09
2022-08-16T01:41:24.764Z,98165.41
2022-08-16T01:43:54.752Z,98167.72
2022-08-16T01:46:47.484Z,98170.50
2022-08-16T01:49:43.086Z,98171.97
2022-08-16T01:52:29.278Z,98171.81
2022-08-16T01:54:58.244Z,98167.75
2022-08-16T01:57:27.710Z,98167.25
2022-08-16T01:59:56.165Z,98163.53
2022-08-16T02:02:28.578Z,98160.94
2022-08-16T02:05:00.259Z,98170.09
2022-08-16T02:07:30.630Z,98164.88
2022-08-16T02:09:59.811Z,98181.56
2022-08-16T02:12:50.125Z,98175.88
2022-08-16T02:15:25.518Z,98175.25
2022-08-16T02:17:54.820Z,98170.00
2022-08-16T02:20:26.467Z,98170.81
2022-08-16T02:23:01.829Z,98170.69
2022-08-16T02:25:52.042Z,98177.75
2022-08-16T02:28:23.747Z,98176.09
2022-08-16T02:30:52.556Z,98161.72
2022-08-16T02:33:24.438Z,98167.13
2022-08-16T02:36:05.450Z,98164.22
2022-08-16T02:38:41.560Z,98164.06
2022-08-16T02:41:12.107Z,98169.63
2022-08-16T02:43:40.572Z,98172.41
2022-08-16T02:46:09.874Z,98167.34
2022-08-16T02:48:39.295Z,98170.63
2022-08-16T02:51:16.416Z,98169.34
2022-08-16T02:53:47.333Z,98173.59
2022-08-16T02:56:17.292Z,98175.41
2022-08-16T02:58:47.697Z,98172.94
2022-08-16T03:01:25.325Z,98173.28
2022-08-16T03:04:39.315Z,98170.03
2022-08-16T03:06:56.623Z,98173.78
2022-08-16T03:09:28.727Z,98166.97
2022-08-16T03:11:57.780Z,98172.00
2022-08-16T03:14:26.011Z,98169.41
2022-08-16T03:16:59.106Z,98176.28
2022-08-16T03:19:46.861Z,98175.47
2022-08-16T03:22:19.342Z,98169.72
2022-08-16T03:24:58.772Z,98183.63
2022-08-16T03:27:30.931Z,98182.34
2022-08-16T03:30:27.761Z,98187.75
2022-08-16T03:32:55.654Z,98190.84
2022-08-16T03:35:32.852Z,98190.34
2022-08-16T03:38:34.372Z,98193.13
2022-08-16T03:40:53.807Z,98202.94
2022-08-16T03:43:21.717Z,98203.25
2022-08-16T03:45:52.718Z,98206.03
2022-08-16T03:48:39.569Z,98207.00
2022-08-16T03:51:12.409Z,98200.66
2022-08-16T03:53:41.987Z,98205.72
2022-08-16T03:56:19.485Z,98212.41
2022-08-16T03:58:50.752Z,98214.72
2022-08-16T04:01:19.106Z,98212.75
2022-08-16T04:03:46.871Z,98211.94
2022-08-16T04:06:17.270Z,98217.34
2022-08-16T04:08:45.244Z,98217.34
2022-08-16T04:11:16.476Z,98220.13
2022-08-16T04:16:26.357Z,98229.06
2022-08-16T04:18:54.548Z,98228.09
2022-08-16T04:21:35.433Z,98237.25
2022-08-16T04:24:03.686Z,98234.00
2022-08-16T04:26:36.301Z,98231.88
2022-08-16T04:29:16.222Z,98234.63
2022-08-16T04:31:55.483Z,98235.81
2022-08-16T04:34:26.467Z,98236.94
2022-08-16T04:36:55.058Z,98239.72
2022-08-16T04:39:44.843Z,98234.16
2022-08-16T04:42:12.960Z,98250.97
2022-08-16T04:44:53.673Z,98255.38
2022-08-16T04:47:35.814Z,98257.50
2022-08-16T04:50:23.430Z,98255.53
2022-08-16T04:52:58.976Z,98257.34
2022-08-16T04:55:37.626Z,98273.16
2022-08-16T04:58:45.192Z,98259.28
2022-08-16T05:00:55.239Z,98275.28
2022-08-16T05:03:24.695Z,98279.03
2022-08-16T05:05:55.850Z,98277.38
2022-08-16T05:08:31.030Z,98280.81
2022-08-16T05:11:08.331Z,98287.50
2022-08-16T05:13:42.566Z,98282.94
2022-08-16T05:16:21.764Z,98285.03
2022-08-16T05:18:53.892Z,98278.31
2022-08-16T05:21:28.455Z,98274.81
2022-08-16T05:24:07.803Z,98272.50
2022-08-16T05:26:43.279Z,98285.88
2022-08-16T05:29:17.855Z,98285.97
2022-08-16T05:31:53.309Z,98285.97
2022-08-16T05:34:22.514Z,98282.00
2022-08-16T05:36:51.350Z,98297.00
2022-08-16T05:39:20.554Z,98297.78
2022-08-16T05:41:51.590Z,98292.03
2022-08-16T05:44:22.965Z,98299.41
2022-08-16T05:47:00.044Z,98300.44
2022-08-16T05:49:39.480Z,98296.63
2022-08-16T05:52:11.514Z,98305.03
2022-08-16T05:54:47.140Z,98304.84
2022-08-16T05:57:20.693Z,98300.63
2022-08-16T05:59:50.387Z,98307.19
2022-08-16T06:02:29.861Z,98304.31
2022-08-16T06:05:02.114Z,98303.53
2022-08-16T06:07:32.059Z,98291.81
2022-08-16T06:10:00.409Z,98280.53
2022-08-16T06:12:29.610Z,98290.59
2022-08-16T06:15:09.700Z,98289.59
2022-08-16T06:17:43.246Z,98284.44
2022-08-16T06:20:24.408Z,98284.00
2022-08-16T06:23:04.059Z,98296.09
2022-08-16T06:25:39.751Z,98280.91
2022-08-16T06:28:17.024Z,98286.09
2022-08-16T06:31:01.946Z,98289.72
2022-08-16T06:33:29.515Z,98291.56
2022-08-16T06:36:09.408Z,98302.75
2022-08-16T06:38:37.287Z,98301.13
2022-08-16T06:41:13.921Z,98293.44
2022-08-16T06:43:42.270Z,98295.41
2022-08-16T06:46:23.529Z,98291.84
2022-08-16T06:48:59.690Z,98295.91
2022-08-16T06:51:45.982Z,98297.75
2022-08-16T06:54:14.444Z,98301.78
2022-08-16T06:56:42.660Z,98298.97
2022-08-16T06:59:11.101Z,98292.56
2022-08-16T07:01:45.201Z,98285.88
2022-08-16T07:04:33.217Z,98287.44
2022-08-16T07:07:09.736Z,98293.41
2022-08-16T07:09:37.609Z,98290.16
2022-08-16T07:12:06.095Z,98291.88
2022-08-16T07:14:35.029Z,98289.84
2022-08-16T07:17:08.397Z,98285.38
2022-08-16T07:20:29.408Z,98283.38
2022-08-16T07:22:30.528Z,98291.25
2022-08-16T07:25:14.098Z,98288.44
2022-08-16T07:27:43.645Z,98287.66
2022-08-16T07:30:46.101Z,98282.47
2022-08-16T07:33:02.640Z,98281.44
2022-08-16T07:35:30.429Z,98284.19
2022-08-16T07:37:57.731Z,98277.69
2022-08-16T07:40:58.379Z,98285.41
2022-08-16T07:43:13.588Z,98286.56
2022-08-16T07:45:43.042Z,98273.13
2022-08-16T07:48:11.890Z,98282.97
2022-08-16T07:50:55.674Z,98283.84
2022-08-16T07:53:28.756Z,98276.19
2022-08-16T07:55:57.996Z,98265.31
2022-08-16T07:58:34.844Z,98264.09
2022-08-16T08:01:10.657Z,98262.81
2022-08-16T08:03:48.238Z,98258.84
2022-08-16T08:06:24.990Z,98249.66
2022-08-16T08:08:57.031Z,98258.25
2022-08-16T08:11:28.145Z,98261.78
2022-08-16T08:14:02.948Z,98264.47
2022-08-16T08:16:32.526Z,98257.59
2022-08-16T08:19:02.684Z,98266.25
2022-08-16T08:22:00.620Z,98264.22
2022-08-16T08:24:31.802Z,98260.22
2022-08-16T08:27:02.103Z,98261.91
2022-08-16T08:29:37.676Z,98260.59
2022-08-16T08:32:57.061Z,98259.25
2022-08-16T08:35:00.375Z,98257.63
2022-08-16T08:37:55.481Z,98251.97
2022-08-16T08:40:26.684Z,98249.06
2022-08-16T08:43:12.192Z,98252.19
2022-08-16T08:45:48.878Z,98253.78
2022-08-16T08:48:33.648Z,98253.78
2022-08-16T08:51:05.475Z,98258.28
2022-08-16T08:53:37.907Z,98251.84
2022-08-16T08:56:23.217Z,98247.75
2022-08-16T08:58:59.054Z,98246.56
2022-08-16T09:01:36.498Z,98247.84
2022-08-16T09:04:14.813Z,98251.84
2022-08-16T09:06:45.558Z,98248.34
2022-08-16T09:09:16.573Z,98251.25
2022-08-16T09:11:52.730Z,98254.38
2022-08-16T09:14:23.905Z,98254.31
2022-08-16T09:17:03.314Z,98247.94
2022-08-16T09:19:34.648Z,98242.78
2022-08-16T09:22:03.303Z,98244.31
2022-08-16T09:24:51.946Z,98236.78
2022-08-16T09:27:25.404Z,98235.22
2022-08-16T09:29:59.913Z,98235.63
2022-08-16T09:32:30.522Z,98232.41
2022-08-16T09:34:59.785Z,98236.84
2022-08-16T09:37:34.856Z,98230.00
2022-08-16T09:40:31.924Z,98230.00
2022-08-16T09:42:59.034Z,98220.88
2022-08-16T09:45:28.979Z,98226.88
2022-08-16T09:47:58.467Z,98228.53
2022-08-16T09:50:37.076Z,98228.22
2022-08-16T09:53:16.987Z,98232.69
2022-08-16T09:55:49.280Z,98227.16
2022-08-16T09:58:37.652Z,98223.59
2022-08-16T10:01:11.197Z,98230.53
2022-08-16T10:04:01.732Z,98217.28
2022-08-16T10:06:21.800Z,98222.09
2022-08-16T10:09:04.256Z,98224.09
2022-08-16T10:11:52.959Z,98226.13
2022-08-16T10:14:24.795Z,98210.91
2022-08-16T10:17:06.332Z,98219.81
2022-08-16T10:19:34.474Z,98223.88
2022-08-16T10:22:04.927Z,98217.09
2022-08-16T10:24:33.899Z,98214.34
2022-08-16T10:27:22.261Z,98216.78
2022-08-16T10:30:00.626Z,98211.94
2022-08-16T10:32:32.169Z,98212.38
2022-08-16T10:35:00.316Z,98214.44
2022-08-16T10:37:36.370Z,98212.81
2022-08-16T10:40:29.588Z,98207.19
2022-08-16T10:43:02.074Z,98204.75
2022-08-16T10:45:37.002Z,98205.56
2022-08-16T10:48:27.695Z,98214.44
2022-08-16T10:51:00.283Z,98207.97
2022-08-16T10:53:33.229Z,98194.72
2022-08-16T10:56:52.393Z,98192.38
2022-08-16T10:59:38.131Z,98188.38
2022-08-16T11:02:21.711Z,98180.34
2022-08-16T11:11:01.570Z,98177.19
2022-08-16T11:15:57.790Z,98179.63
2022-08-16T11:18:54.880Z,98174.00
2022-08-16T11:21:28.680Z,98167.59
2022-08-16T11:23:58.339Z,98168.06
2022-08-16T11:26:27.216Z,98177.72
2022-08-16T11:29:13.141Z,98168.56
2022-08-16T11:31:45.409Z,98166.53
2022-08-16T11:34:19.621Z,98173.84
2022-08-16T11:36:59.420Z,98161.47
2022-08-16T11:39:30.754Z,98168.38
2022-08-16T11:41:59.210Z,98165.63
2022-08-16T11:44:52.251Z,98160.88
2022-08-16T11:47:14.354Z,98164.94
2022-08-16T11:49:41.726Z,98170.31
2022-08-16T11:52:09.060Z,98165.09
2022-08-16T11:54:36.812Z,98167.13
2022-08-16T11:57:09.326Z,98165.97
2022-08-16T11:59:39.977Z,98170.00
2022-08-16T12:02:32.041Z,98169.56
2022-08-16T12:04:56.921Z,98165.56
2022-08-16T12:07:24.919Z,98175.56
2022-08-16T12:09:53.995Z,98192.31
2022-08-16T12:12:23.716Z,98200.63
2022-08-16T12:14:59.456Z,98195.59
2022-08-16T12:17:31.871Z,98210.50
2022-08-16T12:20:00.872Z,98204.97
2022-08-16T12:22:29.155Z,98202.81
2022-08-16T12:24:56.561Z,98194.66
2022-08-16T12:27:26.687Z,98187.09
2022-08-16T12:29:58.436Z,98193.81
2022-08-16T12:32:37.780Z,98185.94
2022-08-16T12:35:15.695Z,98184.75
2022-08-16T12:37:46.253Z,98192.94
2022-08-16T12:40:24.769Z,98199.34
2022-08-16T12:43:00.698Z,98205.16
2022-08-16T12:45:36.288Z,98217.81
2022-08-16T12:48:40.167Z,98233.06
2022-08-16T12:51:19.571Z,98228.41
2022-08-16T12:53:52.204Z,98267.53
2022-08-16T12:56:25.403Z,98290.47
2022-08-16T12:58:55.960Z,98306.59
2022-08-16T13:01:30.538Z,98350.38
2022-08-16T13:04:12.292Z,98299.69
2022-08-16T13:06:52.295Z,98283.91
2022-08-16T13:09:23.614Z,98309.06
2022-08-16T13:12:03.385Z,98281.50
2022-08-16T13:14:43.892Z,98298.38
2022-08-16T13:17:18.677Z,98291.88
2022-08-16T13:20:07.122Z,98284.44
2022-08-16T13:23:01.365Z,98270.28
2022-08-16T13:25:35.357Z,98261.59
2022-08-16T13:28:04.717Z,98262.75
2022-08-16T13:30:42.556Z,98280.44
2022-08-16T13:33:17.574Z,98255.91
2022-08-16T13:35:55.900Z,98231.47
2022-08-16T13:38:25.789Z,98239.19
2022-08-16T13:40:56.785Z,98265.44
2022-08-16T13:43:32.482Z,98283.59
2022-08-16T13:46:04.419Z,98313.94
2022-08-16T13:48:43.019Z,98320.22
2022-08-16T13:51:18.758Z,98325.66
2022-08-16T13:53:58.359Z,98321.34
2022-08-16T13:56:34.246Z,98314.34
2022-08-16T13:59:21.172Z,98319.81
2022-08-16T14:01:59.592Z,98308.44
2022-08-16T14:04:35.319Z,98296.34
2022-08-16T14:07:09.589Z,98303.91
2022-08-16T14:09:38.746Z,98288.81
2022-08-16T14:12:22.536Z,98290.78
2022-08-16T14:14:54.496Z,98305.66
2022-08-16T14:17:24.752Z,98288.31
2022-08-16T14:19:52.422Z,98299.06
2022-08-16T14:22:35.997Z,98287.44
2022-08-16T14:25:16.368Z,98277.06
2022-08-16T14:27:44.230Z,98295.31
2022-08-16T14:30:16.355Z,98281.13
2022-08-16T14:32:47.745Z,98279.72
2022-08-16T14:35:36.677Z,98274.59
2022-08-16T14:38:18.054Z,98270.28
2022-08-16T14:40:51.028Z,98264.94
2022-08-16T14:43:20.581Z,98268.03
2022-08-16T14:45:50.607Z,98258.84
2022-08-16T14:48:25.129Z,98257.09
2022-08-16T14:50:53.894Z,98258.69
2022-08-16T14:53:21.273Z,98256.38
2022-08-16T14:55:49.770Z,98267.97
2022-08-16T14:58:18.905Z,98268.09
2022-08-16T15:00:50.261Z,98268.59
2022-08-16T15:03:21.857Z,98269.28
2022-08-16T15:05:54.071Z,98271.25
2022-08-16T15:08:22.009Z,98269.16
2022-08-16T15:11:07.662Z,98260.56
2022-08-16T15:13:35.412Z,98262.31
2022-08-16T15:16:03.824Z,98259.16
2022-08-16T15:18:33.606Z,98262.41
2022-08-16T15:21:02.594Z,98255.44
2022-08-16T15:23:34.099Z,98249.34
2022-08-16T15:26:03.490Z,98245.91
2022-08-16T15:28:33.105Z,98242.38
2022-08-16T15:31:07.275Z,98243.72
2022-08-16T15:33:46.287Z,98249.06
2022-08-16T15:36:21.319Z,98243.59
2022-08-16T15:39:02.105Z,98256.47
2022-08-16T15:41:44.827Z,98255.41
2022-08-16T15:44:23.149Z,98267.50
2022-08-16T15:46:56.469Z,98275.63
2022-08-16T15:49:37.565Z,98274.56
2022-08-16T15:52:29.218Z,98276.66
2022-08-16T15:55:00.393Z,98288.63
2022-08-16T15:57:41.304Z,98300.63
2022-08-16T16:00:14.564Z,98292.16
2022-08-16T16:02:43.677Z,98292.97
2022-08-16T16:05:11.180Z,98280.25
2022-08-16T16:07:55.751Z,98296.59
2022-08-16T16:10:28.368Z,98296.94
2022-08-16T16:13:03.781Z,98294.13
2022-08-16T16:15:37.310Z,98290.19
2022-08-16T16:18:09.306Z,98292.06
2022-08-16T16:20:38.943Z,98299.97
2022-08-16T16:23:11.093Z,98302.78
2022-08-16T16:25:43.955Z,98301.16
2022-08-16T16:29:06.645Z,98298.81
2022-08-16T16:31:06.358Z,98292.66
2022-08-16T16:33:37.012Z,98297.00
2022-08-16T16:36:06.999Z,98298.78
2022-08-16T16:38:34.835Z,98300.75
2022-08-16T16:41:09.851Z,98297.50
2022-08-16T16:43:41.003Z,98292.28
2022-08-16T16:46:39.286Z,98299.94
2022-08-16T16:48:58.107Z,98287.13
2022-08-16T16:51:28.152Z,98291.56
2022-08-16T16:53:57.156Z,98291.56
2022-08-16T16:56:33.236Z,98291.09
2022-08-16T16:59:10.722Z,98300.66
2022-08-16T17:01:59.482Z,98297.75
2022-08-16T17:04:31.609Z,98297.63
2022-08-16T17:07:01.312Z,98310.59
2022-08-16T17:09:29.540Z,98315.25
2022-08-16T17:11:58.456Z,98313.97
2022-08-16T17:14:33.254Z,98316.28
2022-08-16T17:17:06.188Z,98313.53
2022-08-16T17:19:34.532Z,98317.03
2022-08-16T17:25:02.127Z,98327.28
2022-08-16T17:27:32.950Z,98325.66
2022-08-16T17:30:15.685Z,98328.09
2022-08-16T17:32:54.546Z,98326.81
2022-08-16T17:35:33.730Z,98333.22
2022-08-16T17:38:07.675Z,98336.22
2022-08-16T17:39:28.306Z,98316.56
2022-08-16T17:40:55.341Z,98339.72
2022-08-16T17:43:43.854Z,98349.28
2022-08-16T17:46:41.341Z,98342.41
2022-08-16T17:49:14.107Z,98353.00
2022-08-16T17:51:42.220Z,98348.84
2022-08-16T17:54:18.381Z,98361.97
2022-08-16T17:57:01.104Z,98347.09
2022-08-16T17:59:30.225Z,98358.34
2022-08-16T18:01:58.844Z,98359.06
2022-08-16T18:04:48.585Z,98354.66
2022-08-16T18:07:14.633Z,98350.44
2022-08-16T18:09:42.218Z,98356.84
2022-08-16T18:12:44.786Z,98363.47
2022-08-16T18:15:09.668Z,98359.06
2022-08-16T18:17:36.875Z,98362.19
2022-08-16T18:20:29.017Z,98358.59
2022-08-16T18:23:15.191Z,98366.03
2022-08-16T18:25:52.270Z,98363.53
2022-08-16T18:28:20.249Z,98371.91
2022-08-16T18:31:00.817Z,98376.22
2022-08-16T18:33:29.642Z,98372.16
2022-08-16T18:35:58.476Z,98374.03
2022-08-16T18:38:26.058Z,98375.19
2022-08-16T18:40:53.566Z,98380.28
2022-08-16T18:44:22.772Z,98380.16
2022-08-16T18:46:10.954Z,98389.22
2022-08-16T18:48:38.161Z,98379.91
2022-08-16T18:51:10.331Z,98384.19
2022-08-16T18:53:40.405Z,98378.88
2022-08-16T18:56:07.701Z,98375.94
2022-08-16T18:58:35.311Z,98377.09
2022-08-16T19:01:02.560Z,98381.75
2022-08-16T19:03:32.961Z,98386.50
2022-08-16T19:06:11.413Z,98385.56
2022-08-16T19:08:43.684Z,98388.22
2022-08-16T19:11:15.163Z,98392.50
2022-08-16T19:13:44.506Z,98392.38
2022-08-16T19:16:12.632Z,98396.69
2022-08-16T19:18:40.462Z,98398.41
2022-08-16T19:21:14.462Z,98399.06
2022-08-16T19:23:44.217Z,98396.28
2022-08-16T19:26:24.645Z,98401.03
2022-08-16T19:28:58.355Z,98395.00
2022-08-16T19:31:31.798Z,98398.13
2022-08-16T19:34:00.229Z,98394.03
2022-08-16T19:36:36.885Z,98396.31
2022-08-16T19:39:12.292Z,98398.66
2022-08-16T19:41:45.020Z,98397.72
2022-08-16T19:44:13.461Z,98398.03
2022-08-16T19:46:45.743Z,98405.56
2022-08-16T19:49:16.249Z,98403.16
2022-08-16T19:51:45.901Z,98401.03
2022-08-16T19:54:13.173Z,98403.69
2022-08-16T19:56:40.481Z,98407.16
2022-08-16T19:59:40.236Z,98415.50
2022-08-16T20:01:55.298Z,98422.94
2022-08-16T20:04:24.570Z,98416.41
2022-08-16T20:06:53.393Z,98423.13
2022-08-16T20:09:22.061Z,98419.72
2022-08-16T20:11:52.432Z,98425.66
2022-08-16T20:14:25.378Z,98427.47
2022-08-16T20:16:55.790Z,98427.81
2022-08-16T20:19:23.400Z,98424.56
2022-08-16T20:21:50.819Z,98430.44
2022-08-16T20:24:35.131Z,98433.09
2022-08-16T20:27:06.474Z,98430.50
2022-08-16T20:29:34.198Z,98441.31
2022-08-16T20:32:02.387Z,98433.97
2022-08-16T20:34:29.654Z,98431.06
2022-08-16T20:37:00.007Z,98437.78
2022-08-16T20:39:28.007Z,98444.47
2022-08-16T20:44:40.572Z,98434.88
2022-08-16T20:47:08.854Z,98450.91
2022-08-16T20:49:37.401Z,98453.84
2022-08-16T20:52:14.518Z,98459.28
2022-08-16T20:54:42.939Z,98465.66
2022-08-16T20:57:11.373Z,98464.38
2022-08-16T20:59:39.956Z,98466.66
2022-08-16T21:02:14.047Z,98468.63
2022-08-16T21:04:41.671Z,98477.66
2022-08-16T21:07:10.519Z,98471.59
2022-08-16T21:09:38.283Z,98478.34
2022-08-16T21:12:13.684Z,98481.78
2022-08-16T21:14:45.579Z,98479.66
2022-08-16T21:17:16.047Z,98483.59
2022-08-16T21:19:45.146Z,98486.38
2022-08-16T21:22:17.715Z,98488.19
2022-08-16T21:24:46.677Z,98483.78
2022-08-16T21:27:17.529Z,98483.78
2022-08-16T21:29:46.079Z,98482.81
2022-08-16T21:32:35.211Z,98484.78
2022-08-16T21:35:15.575Z,98489.84
2022-08-16T21:37:43.045Z,98485.78
2022-08-16T21:40:34.036Z,98483.66
2022-08-16T21:43:14.693Z,98495.94
2022-08-16T21:45:44.525Z,98488.25
2022-08-16T21:48:12.065Z,98496.59
2022-08-16T21:50:41.783Z,98505.28
2022-08-16T21:53:19.662Z,98500.72
2022-08-16T21:55:52.741Z,98498.25
2022-08-16T21:58:20.582Z,98493.66
2022-08-16T22:00:48.808Z,98502.03
2022-08-16T22:03:16.868Z,98499.59
2022-08-16T22:06:12.408Z,98497.13
2022-08-16T22:08:39.417Z,98495.84
2022-08-16T22:11:16.143Z,98491.72
2022-08-16T22:13:43.414Z,98490.44
2022-08-16T22:16:19.265Z,98500.75
2022-08-16T22:18:52.436Z,98489.13
2022-08-16T22:21:20.508Z,98502.69
2022-08-16T22:23:56.833Z,98502.56
2022-08-16T22:26:32.433Z,98508.09
2022-08-16T22:29:08.692Z,98497.13
2022-08-16T22:31:38.735Z,98500.72
2022-08-16T22:34:07.885Z,98498.94
2022-08-16T22:36:35.991Z,98500.06
2022-08-16T22:39:08.566Z,98493.22
2022-08-16T22:41:38.219Z,98491.91
2022-08-16T22:44:07.055Z,98495.34
2022-08-16T22:46:36.682Z,98499.28
2022-08-16T22:49:06.417Z,98478.84
2022-08-16T22:51:35.099Z,98491.59
2022-08-16T22:54:33.923Z,98485.56
2022-08-16T22:56:52.114Z,98488.97
2022-08-16T22:59:19.352Z,98483.75
2022-08-16T23:01:47.099Z,98469.34
2022-08-16T23:04:14.309Z,98471.00
2022-08-16T23:06:41.598Z,98476.06
2022-08-16T23:09:09.273Z,98468.88
2022-08-16T23:11:36.522Z,98473.09
2022-08-16T23:14:03.894Z,98475.41
2022-08-16T23:16:34.680Z,98474.28
2022-08-16T23:19:09.477Z,98475.41
2022-08-16T23:21:40.743Z,98469.69
2022-08-16T23:24:09.494Z,98472.47
2022-08-16T23:26:46.883Z,98468.06
2022-08-16T23:29:25.289Z,98464.78
2022-08-16T23:32:11.824Z,98475.09
2022-08-16T23:34:39.447Z,98456.13
2022-08-16T23:37:06.902Z,98471.34
2022-08-16T23:39:35.966Z,98478.34
2022-08-16T23:42:14.587Z,98468.72
2022-08-16T23:44:58.704Z,98469.38
2022-08-16T23:47:26.428Z,98473.31
2022-08-16T23:50:01.253Z,98475.91
2022-08-16T23:52:53.209Z,98481.78
2022-08-16T23:55:17.977Z,98480.16
2022-08-16T23:57:46.355Z,98472.31
